sensor_id;sensor_type;location;lat;lon;timestamp;P1;durP1;ratioP1;P2;durP2;ratioP2
36839;SDS011;24406;51.640;9.566;2022-08-06T00:02:42;2.30;;;1.38;;
36839;SDS011;24406;51.640;9.566;2022-08-06T00:07:43;4.18;;;1.50;;
36839;SDS011;24406;51.640;9.566;2022-08-06T00:12:46;3.10;;;1.55;;
36839;SDS011;24406;51.640;9.566;2022-08-06T00:17:48;2.13;;;2.03;;
36839;SDS011;24406;51.640;9.566;2022-08-06T00:22:49;2.88;;;2.20;;
36839;SDS011;24406;51.640;9.566;2022-08-06T00:27:52;3.22;;;2.00;;
36839;SDS011;24406;51.640;9.566;2022-08-06T00:32:53;1.95;;;1.70;;
36839;SDS011;24406;51.640;9.566;2022-08-06T00:37:56;6.70;;;2.10;;
36839;SDS011;24406;51.640;9.566;2022-08-06T00:42:59;11.10;;;2.28;;
36839;SDS011;24406;51.640;9.566;2022-08-06T00:48:02;4.65;;;1.83;;
36839;SDS011;24406;51.640;9.566;2022-08-06T00:53:04;2.75;;;1.90;;
36839;SDS011;24406;51.640;9.566;2022-08-06T00:58:07;3.90;;;1.83;;
36839;SDS011;24406;51.640;9.566;2022-08-06T01:03:08;3.65;;;1.80;;
36839;SDS011;24406;51.640;9.566;2022-08-06T01:08:10;5.13;;;1.98;;
36839;SDS011;24406;51.640;9.566;2022-08-06T01:13:13;5.07;;;1.60;;
36839;SDS011;24406;51.640;9.566;2022-08-06T01:18:16;2.85;;;1.80;;
36839;SDS011;24406;51.640;9.566;2022-08-06T01:23:24;2.85;;;2.17;;
36839;SDS011;24406;51.640;9.566;2022-08-06T01:28:34;3.38;;;2.00;;
36839;SDS011;24406;51.640;9.566;2022-08-06T01:33:40;6.95;;;2.17;;
36839;SDS011;24406;51.640;9.566;2022-08-06T01:38:44;9.57;;;2.03;;
36839;SDS011;24406;51.640;9.566;2022-08-06T01:43:49;3.20;;;2.30;;
36839;SDS011;24406;51.640;9.566;2022-08-06T01:48:50;3.40;;;2.10;;
36839;SDS011;24406;51.640;9.566;2022-08-06T01:53:52;2.88;;;2.08;;
36839;SDS011;24406;51.640;9.566;2022-08-06T01:58:55;3.42;;;2.10;;
36839;SDS011;24406;51.640;9.566;2022-08-06T02:03:56;2.78;;;2.17;;
36839;SDS011;24406;51.640;9.566;2022-08-06T02:09:00;3.72;;;2.38;;
36839;SDS011;24406;51.640;9.566;2022-08-06T02:14:04;13.63;;;2.75;;
36839;SDS011;24406;51.640;9.566;2022-08-06T02:19:07;3.00;;;2.00;;
36839;SDS011;24406;51.640;9.566;2022-08-06T02:24:09;3.05;;;1.85;;
36839;SDS011;24406;51.640;9.566;2022-08-06T02:29:14;2.78;;;1.60;;
36839;SDS011;24406;51.640;9.566;2022-08-06T02:34:18;2.70;;;1.60;;
36839;SDS011;24406;51.640;9.566;2022-08-06T02:39:22;1.83;;;1.67;;
36839;SDS011;24406;51.640;9.566;2022-08-06T02:44:28;5.28;;;2.08;;
36839;SDS011;24406;51.640;9.566;2022-08-06T02:49:36;4.30;;;2.08;;
36839;SDS011;24406;51.640;9.566;2022-08-06T02:54:40;4.45;;;2.20;;
36839;SDS011;24406;51.640;9.566;2022-08-06T02:59:45;4.18;;;2.20;;
36839;SDS011;24406;51.640;9.566;2022-08-06T03:04:48;2.25;;;2.05;;
36839;SDS011;24406;51.640;9.566;2022-08-06T03:09:50;6.78;;;2.47;;
36839;SDS011;24406;51.640;9.566;2022-08-06T03:14:54;6.60;;;2.15;;
36839;SDS011;24406;51.640;9.566;2022-08-06T03:19:57;4.10;;;2.03;;
36839;SDS011;24406;51.640;9.566;2022-08-06T03:24:59;4.18;;;1.90;;
36839;SDS011;24406;51.640;9.566;2022-08-06T03:30:03;2.38;;;2.17;;
36839;SDS011;24406;51.640;9.566;2022-08-06T03:35:05;4.00;;;2.33;;
36839;SDS011;24406;51.640;9.566;2022-08-06T03:40:08;2.65;;;2.00;;
36839;SDS011;24406;51.640;9.566;2022-08-06T03:45:12;3.38;;;2.05;;
36839;SDS011;24406;51.640;9.566;2022-08-06T03:50:14;1.90;;;1.80;;
36839;SDS011;24406;51.640;9.566;2022-08-06T03:55:17;2.22;;;1.80;;
36839;SDS011;24406;51.640;9.566;2022-08-06T04:00:24;3.72;;;1.92;;
36839;SDS011;24406;51.640;9.566;2022-08-06T04:05:27;2.55;;;1.88;;
36839;SDS011;24406;51.640;9.566;2022-08-06T04:10:30;3.03;;;2.50;;
36839;SDS011;24406;51.640;9.566;2022-08-06T04:15:33;3.58;;;2.20;;
36839;SDS011;24406;51.640;9.566;2022-08-06T04:20:35;4.07;;;2.05;;
36839;SDS011;24406;51.640;9.566;2022-08-06T04:25:38;2.63;;;2.25;;
36839;SDS011;24406;51.640;9.566;2022-08-06T04:30:43;4.25;;;2.25;;
36839;SDS011;24406;51.640;9.566;2022-08-06T04:35:45;3.25;;;2.55;;
36839;SDS011;24406;51.640;9.566;2022-08-06T04:40:47;7.57;;;2.88;;
36839;SDS011;24406;51.640;9.566;2022-08-06T04:45:50;2.88;;;2.67;;
36839;SDS011;24406;51.640;9.566;2022-08-06T04:50:52;3.25;;;3.00;;
36839;SDS011;24406;51.640;9.566;2022-08-06T04:55:54;2.97;;;2.78;;
36839;SDS011;24406;51.640;9.566;2022-08-06T05:00:56;4.13;;;3.03;;
36839;SDS011;24406;51.640;9.566;2022-08-06T05:05:59;2.95;;;2.50;;
36839;SDS011;24406;51.640;9.566;2022-08-06T05:11:05;5.28;;;2.67;;
36839;SDS011;24406;51.640;9.566;2022-08-06T05:16:11;4.32;;;3.33;;
36839;SDS011;24406;51.640;9.566;2022-08-06T05:21:14;5.05;;;2.90;;
36839;SDS011;24406;51.640;9.566;2022-08-06T05:26:19;3.15;;;2.65;;
36839;SDS011;24406;51.640;9.566;2022-08-06T05:31:29;2.63;;;2.40;;
36839;SDS011;24406;51.640;9.566;2022-08-06T05:36:31;3.00;;;2.80;;
36839;SDS011;24406;51.640;9.566;2022-08-06T05:41:33;3.97;;;3.00;;
36839;SDS011;24406;51.640;9.566;2022-08-06T05:46:39;2.60;;;2.40;;
36839;SDS011;24406;51.640;9.566;2022-08-06T05:51:43;2.78;;;2.38;;
36839;SDS011;24406;51.640;9.566;2022-08-06T05:56:48;5.30;;;2.75;;
36839;SDS011;24406;51.640;9.566;2022-08-06T06:01:53;6.05;;;3.42;;
36839;SDS011;24406;51.640;9.566;2022-08-06T06:06:55;3.95;;;2.97;;
36839;SDS011;24406;51.640;9.566;2022-08-06T06:11:57;3.58;;;2.88;;
36839;SDS011;24406;51.640;9.566;2022-08-06T06:17:03;4.95;;;3.33;;
36839;SDS011;24406;51.640;9.566;2022-08-06T06:22:17;2.92;;;2.63;;
36839;SDS011;24406;51.640;9.566;2022-08-06T06:27:22;2.92;;;2.72;;
36839;SDS011;24406;51.640;9.566;2022-08-06T06:32:32;2.45;;;2.25;;
36839;SDS011;24406;51.640;9.566;2022-08-06T06:37:39;2.88;;;2.67;;
36839;SDS011;24406;51.640;9.566;2022-08-06T06:42:45;2.50;;;2.30;;
36839;SDS011;24406;51.640;9.566;2022-08-06T06:47:55;3.60;;;2.60;;
36839;SDS011;24406;51.640;9.566;2022-08-06T06:52:59;2.80;;;2.60;;
36839;SDS011;24406;51.640;9.566;2022-08-06T06:58:02;2.80;;;2.60;;
36839;SDS011;24406;51.640;9.566;2022-08-06T07:03:08;4.85;;;3.30;;
36839;SDS011;24406;51.640;9.566;2022-08-06T07:08:10;6.88;;;3.03;;
36839;SDS011;24406;51.640;9.566;2022-08-06T07:13:12;2.72;;;2.40;;
36839;SDS011;24406;51.640;9.566;2022-08-06T07:18:15;3.50;;;2.42;;
36839;SDS011;24406;51.640;9.566;2022-08-06T07:23:17;3.58;;;2.35;;
36839;SDS011;24406;51.640;9.566;2022-08-06T07:28:20;1.95;;;1.67;;
36839;SDS011;24406;51.640;9.566;2022-08-06T07:33:26;2.08;;;1.88;;
36839;SDS011;24406;51.640;9.566;2022-08-06T07:38:29;3.22;;;1.98;;
36839;SDS011;24406;51.640;9.566;2022-08-06T07:43:34;2.65;;;1.35;;
36839;SDS011;24406;51.640;9.566;2022-08-06T07:48:40;4.35;;;1.45;;
36839;SDS011;24406;51.640;9.566;2022-08-06T07:53:45;2.75;;;1.40;;
36839;SDS011;24406;51.640;9.566;2022-08-06T07:58:47;2.65;;;1.30;;
36839;SDS011;24406;51.640;9.566;2022-08-06T08:03:50;2.70;;;1.27;;
36839;SDS011;24406;51.640;9.566;2022-08-06T08:09:17;2.72;;;1.23;;
36839;SDS011;24406;51.640;9.566;2022-08-06T08:14:20;2.35;;;1.05;;
36839;SDS011;24406;51.640;9.566;2022-08-06T08:19:24;1.50;;;0.80;;
36839;SDS011;24406;51.640;9.566;2022-08-06T08:24:31;1.20;;;1.10;;
36839;SDS011;24406;51.640;9.566;2022-08-06T08:29:33;3.58;;;0.98;;
36839;SDS011;24406;51.640;9.566;2022-08-06T08:34:36;4.03;;;0.80;;
36839;SDS011;24406;51.640;9.566;2022-08-06T08:39:38;1.58;;;1.00;;
36839;SDS011;24406;51.640;9.566;2022-08-06T08:44:39;1.88;;;0.70;;
36839;SDS011;24406;51.640;9.566;2022-08-06T08:49:44;0.68;;;0.68;;
36839;SDS011;24406;51.640;9.566;2022-08-06T08:54:51;1.35;;;0.73;;
36839;SDS011;24406;51.640;9.566;2022-08-06T08:59:53;2.75;;;0.52;;
36839;SDS011;24406;51.640;9.566;2022-08-06T09:04:56;0.60;;;0.60;;
36839;SDS011;24406;51.640;9.566;2022-08-06T09:09:59;0.80;;;0.68;;
36839;SDS011;24406;51.640;9.566;2022-08-06T09:15:00;1.90;;;0.98;;
36839;SDS011;24406;51.640;9.566;2022-08-06T09:20:04;2.90;;;0.95;;
36839;SDS011;24406;51.640;9.566;2022-08-06T09:25:06;2.42;;;0.80;;
36839;SDS011;24406;51.640;9.566;2022-08-06T09:30:09;1.08;;;0.50;;
36839;SDS011;24406;51.640;9.566;2022-08-06T09:35:20;1.60;;;0.50;;
36839;SDS011;24406;51.640;9.566;2022-08-06T09:40:22;1.10;;;0.60;;
36839;SDS011;24406;51.640;9.566;2022-08-06T09:45:24;1.30;;;0.85;;
36839;SDS011;24406;51.640;9.566;2022-08-06T09:50:40;2.20;;;0.80;;
36839;SDS011;24406;51.640;9.566;2022-08-06T09:55:43;1.85;;;0.70;;
36839;SDS011;24406;51.640;9.566;2022-08-06T10:00:45;1.25;;;0.50;;
36839;SDS011;24406;51.640;9.566;2022-08-06T10:05:48;0.60;;;0.60;;
36839;SDS011;24406;51.640;9.566;2022-08-06T10:11:03;15.25;;;2.20;;
36839;SDS011;24406;51.640;9.566;2022-08-06T10:16:15;2.15;;;0.60;;
36839;SDS011;24406;51.640;9.566;2022-08-06T10:21:19;4.20;;;0.70;;
36839;SDS011;24406;51.640;9.566;2022-08-06T10:26:24;0.50;;;0.50;;
36839;SDS011;24406;51.640;9.566;2022-08-06T10:31:27;3.03;;;0.55;;
36839;SDS011;24406;51.640;9.566;2022-08-06T10:36:34;3.05;;;0.80;;
36839;SDS011;24406;51.640;9.566;2022-08-06T10:41:37;2.53;;;0.77;;
36839;SDS011;24406;51.640;9.566;2022-08-06T10:46:40;6.35;;;0.63;;
36839;SDS011;24406;51.640;9.566;2022-08-06T10:51:45;0.65;;;0.60;;
36839;SDS011;24406;51.640;9.566;2022-08-06T10:56:47;2.97;;;0.50;;
36839;SDS011;24406;51.640;9.566;2022-08-06T11:01:49;1.52;;;0.40;;
36839;SDS011;24406;51.640;9.566;2022-08-06T11:07:04;1.30;;;0.60;;
36839;SDS011;24406;51.640;9.566;2022-08-06T11:12:17;0.77;;;0.75;;
36839;SDS011;24406;51.640;9.566;2022-08-06T11:17:25;1.25;;;0.60;;
36839;SDS011;24406;51.640;9.566;2022-08-06T11:22:32;2.47;;;0.63;;
36839;SDS011;24406;51.640;9.566;2022-08-06T11:32:50;0.63;;;0.52;;
36839;SDS011;24406;51.640;9.566;2022-08-06T11:37:54;2.67;;;0.80;;
36839;SDS011;24406;51.640;9.566;2022-08-06T11:42:55;1.23;;;0.70;;
36839;SDS011;24406;51.640;9.566;2022-08-06T11:48:03;1.45;;;0.80;;
36839;SDS011;24406;51.640;9.566;2022-08-06T11:53:06;1.85;;;0.90;;
36839;SDS011;24406;51.640;9.566;2022-08-06T11:58:17;2.03;;;0.55;;
36839;SDS011;24406;51.640;9.566;2022-08-06T12:03:35;1.60;;;0.40;;
36839;SDS011;24406;51.640;9.566;2022-08-06T12:08:38;0.77;;;0.60;;
36839;SDS011;24406;51.640;9.566;2022-08-06T12:13:39;0.93;;;0.70;;
36839;SDS011;24406;51.640;9.566;2022-08-06T12:18:41;2.13;;;0.90;;
36839;SDS011;24406;51.640;9.566;2022-08-06T12:23:44;5.00;;;1.00;;
36839;SDS011;24406;51.640;9.566;2022-08-06T12:28:46;5.43;;;0.70;;
36839;SDS011;24406;51.640;9.566;2022-08-06T12:33:47;0.85;;;0.70;;
36839;SDS011;24406;51.640;9.566;2022-08-06T12:38:54;2.92;;;0.70;;
36839;SDS011;24406;51.640;9.566;2022-08-06T12:43:56;1.20;;;0.70;;
36839;SDS011;24406;51.640;9.566;2022-08-06T12:48:58;0.60;;;0.60;;
36839;SDS011;24406;51.640;9.566;2022-08-06T12:54:02;1.77;;;0.60;;
36839;SDS011;24406;51.640;9.566;2022-08-06T12:59:08;1.10;;;0.75;;
36839;SDS011;24406;51.640;9.566;2022-08-06T13:04:10;2.42;;;0.85;;
36839;SDS011;24406;51.640;9.566;2022-08-06T13:09:14;0.70;;;0.60;;
36839;SDS011;24406;51.640;9.566;2022-08-06T13:14:15;2.88;;;0.90;;
36839;SDS011;24406;51.640;9.566;2022-08-06T13:19:17;0.50;;;0.50;;
36839;SDS011;24406;51.640;9.566;2022-08-06T13:24:26;0.80;;;0.50;;
36839;SDS011;24406;51.640;9.566;2022-08-06T13:29:28;0.40;;;0.40;;
36839;SDS011;24406;51.640;9.566;2022-08-06T13:34:38;18.85;;;1.20;;
36839;SDS011;24406;51.640;9.566;2022-08-06T13:39:50;2.22;;;0.73;;
36839;SDS011;24406;51.640;9.566;2022-08-06T13:44:52;0.90;;;0.50;;
36839;SDS011;24406;51.640;9.566;2022-08-06T13:49:54;2.17;;;0.50;;
36839;SDS011;24406;51.640;9.566;2022-08-06T13:54:57;0.68;;;0.50;;
36839;SDS011;24406;51.640;9.566;2022-08-06T13:59:58;1.05;;;0.40;;
36839;SDS011;24406;51.640;9.566;2022-08-06T14:05:00;0.68;;;0.50;;
36839;SDS011;24406;51.640;9.566;2022-08-06T14:10:05;1.27;;;0.70;;
36839;SDS011;24406;51.640;9.566;2022-08-06T14:15:08;2.03;;;0.70;;
36839;SDS011;24406;51.640;9.566;2022-08-06T14:20:10;0.70;;;0.50;;
36839;SDS011;24406;51.640;9.566;2022-08-06T14:25:13;0.50;;;0.50;;
36839;SDS011;24406;51.640;9.566;2022-08-06T14:30:15;6.32;;;0.60;;
36839;SDS011;24406;51.640;9.566;2022-08-06T14:35:17;3.83;;;0.50;;
36839;SDS011;24406;51.640;9.566;2022-08-06T14:40:20;0.77;;;0.52;;
36839;SDS011;24406;51.640;9.566;2022-08-06T14:45:36;0.63;;;0.57;;
36839;SDS011;24406;51.640;9.566;2022-08-06T14:50:38;0.75;;;0.63;;
36839;SDS011;24406;51.640;9.566;2022-08-06T14:55:41;0.35;;;0.35;;
36839;SDS011;24406;51.640;9.566;2022-08-06T15:00:42;0.70;;;0.60;;
36839;SDS011;24406;51.640;9.566;2022-08-06T15:05:47;0.85;;;0.50;;
36839;SDS011;24406;51.640;9.566;2022-08-06T15:10:50;8.90;;;1.65;;
36839;SDS011;24406;51.640;9.566;2022-08-06T15:15:51;1.35;;;0.57;;
36839;SDS011;24406;51.640;9.566;2022-08-06T15:20:53;0.68;;;0.65;;
36839;SDS011;24406;51.640;9.566;2022-08-06T15:25:55;13.40;;;2.03;;
36839;SDS011;24406;51.640;9.566;2022-08-06T15:30:57;23.88;;;2.60;;
36839;SDS011;24406;51.640;9.566;2022-08-06T15:35:58;0.43;;;0.40;;
36839;SDS011;24406;51.640;9.566;2022-08-06T15:41:01;4.28;;;0.70;;
36839;SDS011;24406;51.640;9.566;2022-08-06T15:46:03;0.50;;;0.50;;
36839;SDS011;24406;51.640;9.566;2022-08-06T15:51:04;3.47;;;0.40;;
36839;SDS011;24406;51.640;9.566;2022-08-06T15:56:07;0.77;;;0.40;;
36839;SDS011;24406;51.640;9.566;2022-08-06T16:01:08;1.05;;;0.50;;
36839;SDS011;24406;51.640;9.566;2022-08-06T16:06:10;0.65;;;0.50;;
36839;SDS011;24406;51.640;9.566;2022-08-06T16:11:13;3.97;;;0.65;;
36839;SDS011;24406;51.640;9.566;2022-08-06T16:16:14;0.40;;;0.40;;
36839;SDS011;24406;51.640;9.566;2022-08-06T16:21:16;0.65;;;0.60;;
36839;SDS011;24406;51.640;9.566;2022-08-06T16:26:19;4.15;;;0.68;;
36839;SDS011;24406;51.640;9.566;2022-08-06T16:31:20;2.08;;;0.70;;
36839;SDS011;24406;51.640;9.566;2022-08-06T16:36:22;1.02;;;0.57;;
36839;SDS011;24406;51.640;9.566;2022-08-06T16:41:24;0.85;;;0.40;;
36839;SDS011;24406;51.640;9.566;2022-08-06T16:46:26;0.57;;;0.40;;
36839;SDS011;24406;51.640;9.566;2022-08-06T16:51:27;0.40;;;0.40;;
36839;SDS011;24406;51.640;9.566;2022-08-06T16:56:31;0.55;;;0.40;;
36839;SDS011;24406;51.640;9.566;2022-08-06T17:01:34;0.70;;;0.40;;
36839;SDS011;24406;51.640;9.566;2022-08-06T17:06:35;1.00;;;0.45;;
36839;SDS011;24406;51.640;9.566;2022-08-06T17:11:38;0.95;;;0.50;;
36839;SDS011;24406;51.640;9.566;2022-08-06T17:16:40;0.40;;;0.40;;
36839;SDS011;24406;51.640;9.566;2022-08-06T17:21:41;0.88;;;0.60;;
36839;SDS011;24406;51.640;9.566;2022-08-06T17:26:44;0.47;;;0.40;;
36839;SDS011;24406;51.640;9.566;2022-08-06T17:31:46;0.40;;;0.40;;
36839;SDS011;24406;51.640;9.566;2022-08-06T17:36:48;0.82;;;0.50;;
36839;SDS011;24406;51.640;9.566;2022-08-06T17:41:50;1.15;;;0.57;;
36839;SDS011;24406;51.640;9.566;2022-08-06T17:46:52;2.47;;;0.63;;
36839;SDS011;24406;51.640;9.566;2022-08-06T17:51:53;2.63;;;0.60;;
36839;SDS011;24406;51.640;9.566;2022-08-06T17:56:56;1.50;;;0.55;;
36839;SDS011;24406;51.640;9.566;2022-08-06T18:01:59;0.45;;;0.32;;
36839;SDS011;24406;51.640;9.566;2022-08-06T18:07:01;0.82;;;0.60;;
36839;SDS011;24406;51.640;9.566;2022-08-06T18:12:05;0.65;;;0.60;;
36839;SDS011;24406;51.640;9.566;2022-08-06T18:17:07;1.55;;;1.02;;
36839;SDS011;24406;51.640;9.566;2022-08-06T18:22:08;0.93;;;0.70;;
36839;SDS011;24406;51.640;9.566;2022-08-06T18:27:11;2.03;;;0.68;;
36839;SDS011;24406;51.640;9.566;2022-08-06T18:32:12;2.28;;;0.60;;
36839;SDS011;24406;51.640;9.566;2022-08-06T18:37:14;0.60;;;0.60;;
36839;SDS011;24406;51.640;9.566;2022-08-06T18:42:17;0.70;;;0.50;;
36839;SDS011;24406;51.640;9.566;2022-08-06T18:47:18;3.35;;;0.70;;
36839;SDS011;24406;51.640;9.566;2022-08-06T18:52:19;1.02;;;0.43;;
36839;SDS011;24406;51.640;9.566;2022-08-06T18:57:22;2.47;;;0.55;;
36839;SDS011;24406;51.640;9.566;2022-08-06T19:02:28;2.00;;;0.80;;
36839;SDS011;24406;51.640;9.566;2022-08-06T19:07:30;0.90;;;0.70;;
36839;SDS011;24406;51.640;9.566;2022-08-06T19:12:33;0.75;;;0.60;;
36839;SDS011;24406;51.640;9.566;2022-08-06T19:17:36;1.38;;;0.60;;
36839;SDS011;24406;51.640;9.566;2022-08-06T19:22:38;7.32;;;0.98;;
36839;SDS011;24406;51.640;9.566;2022-08-06T19:27:41;1.60;;;0.65;;
36839;SDS011;24406;51.640;9.566;2022-08-06T19:32:43;1.65;;;0.88;;
36839;SDS011;24406;51.640;9.566;2022-08-06T19:37:44;0.70;;;0.50;;
36839;SDS011;24406;51.640;9.566;2022-08-06T19:42:48;3.95;;;0.90;;
36839;SDS011;24406;51.640;9.566;2022-08-06T19:47:49;1.67;;;0.90;;
36839;SDS011;24406;51.640;9.566;2022-08-06T19:52:50;1.00;;;1.00;;
36839;SDS011;24406;51.640;9.566;2022-08-06T19:57:54;0.80;;;0.80;;
36839;SDS011;24406;51.640;9.566;2022-08-06T20:02:56;2.40;;;1.15;;
36839;SDS011;24406;51.640;9.566;2022-08-06T20:07:57;1.20;;;0.70;;
36839;SDS011;24406;51.640;9.566;2022-08-06T20:13:00;1.40;;;0.90;;
36839;SDS011;24406;51.640;9.566;2022-08-06T20:18:01;0.75;;;0.63;;
36839;SDS011;24406;51.640;9.566;2022-08-06T20:23:03;2.17;;;1.00;;
36839;SDS011;24406;51.640;9.566;2022-08-06T20:28:06;5.35;;;1.40;;
36839;SDS011;24406;51.640;9.566;2022-08-06T20:33:08;1.70;;;1.10;;
36839;SDS011;24406;51.640;9.566;2022-08-06T20:38:09;2.10;;;1.30;;
36839;SDS011;24406;51.640;9.566;2022-08-06T20:43:12;1.20;;;1.10;;
36839;SDS011;24406;51.640;9.566;2022-08-06T20:48:15;1.90;;;1.00;;
36839;SDS011;24406;51.640;9.566;2022-08-06T20:53:17;2.22;;;1.10;;
36839;SDS011;24406;51.640;9.566;2022-08-06T20:58:20;4.15;;;0.93;;
36839;SDS011;24406;51.640;9.566;2022-08-06T21:03:21;1.63;;;0.68;;
36839;SDS011;24406;51.640;9.566;2022-08-06T21:08:24;1.58;;;0.75;;
36839;SDS011;24406;51.640;9.566;2022-08-06T21:13:26;1.63;;;0.93;;
36839;SDS011;24406;51.640;9.566;2022-08-06T21:18:28;1.70;;;1.00;;
36839;SDS011;24406;51.640;9.566;2022-08-06T21:23:30;4.32;;;1.10;;
36839;SDS011;24406;51.640;9.566;2022-08-06T21:28:32;1.30;;;0.88;;
36839;SDS011;24406;51.640;9.566;2022-08-06T21:33:34;1.52;;;0.90;;
36839;SDS011;24406;51.640;9.566;2022-08-06T21:38:39;0.80;;;0.80;;
36839;SDS011;24406;51.640;9.566;2022-08-06T21:43:42;2.85;;;0.88;;
36839;SDS011;24406;51.640;9.566;2022-08-06T21:48:45;1.00;;;1.00;;
36839;SDS011;24406;51.640;9.566;2022-08-06T21:53:47;3.92;;;1.20;;
36839;SDS011;24406;51.640;9.566;2022-08-06T21:58:50;2.47;;;1.00;;
36839;SDS011;24406;51.640;9.566;2022-08-06T22:03:55;1.23;;;1.13;;
36839;SDS011;24406;51.640;9.566;2022-08-06T22:08:58;2.45;;;1.42;;
36839;SDS011;24406;51.640;9.566;2022-08-06T22:14:01;1.27;;;1.10;;
36839;SDS011;24406;51.640;9.566;2022-08-06T22:19:02;1.75;;;0.90;;
36839;SDS011;24406;51.640;9.566;2022-08-06T22:24:04;1.95;;;1.17;;
36839;SDS011;24406;51.640;9.566;2022-08-06T22:29:07;5.57;;;1.00;;
36839;SDS011;24406;51.640;9.566;2022-08-06T22:34:08;1.33;;;0.90;;
36839;SDS011;24406;51.640;9.566;2022-08-06T22:39:10;0.93;;;0.93;;
36839;SDS011;24406;51.640;9.566;2022-08-06T22:44:13;2.13;;;1.92;;
36839;SDS011;24406;51.640;9.566;2022-08-06T22:49:14;3.53;;;1.80;;
36839;SDS011;24406;51.640;9.566;2022-08-06T22:54:16;1.30;;;1.20;;
36839;SDS011;24406;51.640;9.566;2022-08-06T22:59:18;1.48;;;1.30;;
36839;SDS011;24406;51.640;9.566;2022-08-06T23:04:20;4.88;;;1.60;;
36839;SDS011;24406;51.640;9.566;2022-08-06T23:09:21;1.85;;;1.50;;
36839;SDS011;24406;51.640;9.566;2022-08-06T23:14:24;2.10;;;1.33;;
36839;SDS011;24406;51.640;9.566;2022-08-06T23:19:26;2.10;;;1.20;;
36839;SDS011;24406;51.640;9.566;2022-08-06T23:24:35;1.30;;;1.20;;
36839;SDS011;24406;51.640;9.566;2022-08-06T23:30:13;5.65;;;1.40;;
36839;SDS011;24406;51.640;9.566;2022-08-06T23:40:18;3.80;;;1.65;;
36839;SDS011;24406;51.640;9.566;2022-08-06T23:45:21;1.70;;;1.60;;
36839;SDS011;24406;51.640;9.566;2022-08-06T23:50:22;2.72;;;1.35;;
36839;SDS011;24406;51.640;9.566;2022-08-06T23:55:24;1.52;;;1.40;;
